Time;durP1;ratioP1;P1;durP2;ratioP2;P2;SDS_P1;SDS_P2;PMS_P1;PMS_P2;Temp;Humidity;BMP_temperature;BMP_pressure;BME280_temperature;BME280_humidity;BME280_pressure;Samples;Min_cycle;Max_cycle;Signal;HPM_P1;HPM_P2
2022/02/09 00:00:26;;;;;;;23.67;16.63;;;10.30;99.90;;;;;;4968574;28;20515;-66
2022/02/09 00:03:10;;;;;;;27.27;17.37;;;10.20;99.90;;;;;;4982436;28;20511;-66
2022/02/09 00:05:48;;;;;;;22.70;15.85;;;10.20;99.90;;;;;;4980286;28;20451;-63
2022/02/09 00:08:21;;;;;;;26.13;17.80;;;10.20;99.90;;;;;;4981397;28;20215;-64
2022/02/09 00:10:58;;;;;;;26.83;18.30;;;10.20;99.90;;;;;;4969768;28;20491;-63
2022/02/09 00:13:42;;;;;;;21.90;15.57;;;10.10;99.90;;;;;;4979017;28;20802;-63
2022/02/09 00:16:30;;;;;;;18.43;15.80;;;9.80;99.90;;;;;;4980078;28;20471;-67
2022/02/09 00:19:07;;;;;;;23.50;17.00;;;9.80;99.90;;;;;;4980383;28;20454;-63
2022/02/09 00:22:09;;;;;;;20.13;15.80;;;9.70;99.90;;;;;;4981780;28;20452;-63
2022/02/09 00:38:52;;;;;;;22.00;15.50;;;9.50;99.90;;;;;;4978589;28;20455;-60
2022/02/09 00:41:45;;;;;;;20.90;15.50;;;9.50;99.90;;;;;;4982610;28;20649;-63
2022/02/09 00:44:43;;;;;;;21.63;14.63;;;9.50;99.90;;;;;;4976543;28;20471;-64
2022/02/09 01:38:13;;;;;;;20.17;12.60;;;9.10;99.90;;;;;;4983908;28;20770;-64
2022/02/09 01:57:55;;;;;;;17.07;14.07;;;8.80;99.90;;;;;;5070005;27;20445;-66
2022/02/09 02:00:28;;;;;;;18.47;14.50;;;8.70;99.90;;;;;;5087124;27;20458;-65
2022/02/09 02:03:01;;;;;;;17.75;13.73;;;8.70;99.90;;;;;;5096038;27;20474;-65
2022/02/09 02:05:35;;;;;;;20.90;14.43;;;8.70;99.90;;;;;;5163413;27;20226;-64
2022/02/09 02:08:09;;;;;;;16.90;13.53;;;8.80;99.90;;;;;;5085476;27;20453;-65
2022/02/09 02:10:59;;;;;;;19.45;14.23;;;8.80;99.90;;;;;;5117147;27;20858;-65
2022/02/09 02:13:50;;;;;;;21.20;13.68;;;8.80;99.90;;;;;;5077856;27;20193;-64
2022/02/09 02:16:30;;;;;;;19.85;14.00;;;8.80;99.90;;;;;;5071378;27;20237;-62
2022/02/09 02:19:31;;;;;;;15.90;13.30;;;8.80;99.90;;;;;;5106203;27;20225;-62
2022/02/09 02:22:14;;;;;;;16.53;13.43;;;8.70;99.90;;;;;;5070684;27;20448;-62
2022/02/09 02:25:09;;;;;;;16.40;13.47;;;8.70;99.90;;;;;;5076006;27;20485;-62
2022/02/09 02:28:10;;;;;;;21.52;14.13;;;8.70;99.90;;;;;;5128569;27;20450;-62
2022/02/09 02:31:18;;;;;;;19.20;13.63;;;8.70;99.90;;;;;;5077850;27;20201;-62
2022/02/09 02:40:01;;;;;;;19.30;14.77;;;8.40;99.90;;;;;;5089749;28;20451;-62
2022/02/09 03:07:46;;;;;;;17.58;14.38;;;8.30;99.90;;;;;;5068693;28;20232;-62
2022/02/09 03:08:36;;;;;;;23.13;14.45;;;8.40;99.90;;;;;;5064631;28;20228;-62
2022/02/09 03:14:04;;;;;;;23.65;15.10;;;8.30;99.90;;;;;;5042770;28;20217;-63
2022/02/09 03:16:38;;;;;;;18.38;15.02;;;8.30;99.90;;;;;;5062305;27;20293;-62
2022/02/09 03:19:41;;;;;;;22.30;15.90;;;8.20;99.90;;;;;;5064386;27;20212;-62
2022/02/09 03:22:26;;;;;;;17.92;13.60;;;8.20;99.90;;;;;;5079471;27;20202;-62
2022/02/09 03:30:53;;;;;;;19.95;15.90;;;8.10;99.90;;;;;;5045786;27;20220;-62
2022/02/09 03:31:03;;;;;;;18.20;15.10;;;8.10;99.90;;;;;;5049386;27;20210;-62
2022/02/09 03:42:33;;;;;;;24.17;15.98;;;8.10;99.90;;;;;;5059912;27;20194;-64
2022/02/09 03:45:41;;;;;;;21.63;16.05;;;8.10;99.90;;;;;;5125568;27;20222;-64
2022/02/09 03:51:34;;;;;;;28.75;21.88;;;8.10;99.90;;;;;;5100587;27;20204;-62
2022/02/09 03:54:15;;;;;;;26.33;19.88;;;8.20;99.90;;;;;;5064426;27;20185;-62
2022/02/09 03:57:02;;;;;;;25.92;20.38;;;8.00;99.90;;;;;;5114819;27;20332;-62
2022/02/09 03:59:34;;;;;;;23.60;18.92;;;8.00;99.90;;;;;;5052400;27;20217;-62
2022/02/09 04:02:08;;;;;;;22.35;18.42;;;8.10;99.90;;;;;;5081850;27;20204;-62
2022/02/09 04:04:41;;;;;;;23.95;19.00;;;8.20;99.90;;;;;;5078487;27;20193;-62
2022/02/09 04:07:13;;;;;;;24.33;21.23;;;8.20;99.90;;;;;;5061017;27;20577;-62
2022/02/09 04:09:47;;;;;;;35.25;23.35;;;8.20;99.90;;;;;;5084199;27;20221;-62
2022/02/09 04:12:30;;;;;;;26.33;22.00;;;8.10;99.90;;;;;;5137430;27;20192;-62
2022/02/09 04:15:15;;;;;;;28.17;21.80;;;8.10;99.90;;;;;;5122092;27;20194;-63
2022/02/09 04:18:00;;;;;;;27.50;21.13;;;8.00;99.90;;;;;;5053372;27;20205;-61
2022/02/09 04:22:30;;;;;;;27.33;21.50;;;7.90;99.90;;;;;;5087620;27;20289;-65
2022/02/09 04:37:43;;;;;;;25.63;20.98;;;7.40;99.90;;;;;;5115765;27;20225;-60
2022/02/09 04:40:28;;;;;;;26.42;22.55;;;7.30;99.90;;;;;;5164836;27;20194;-61
2022/02/09 04:43:21;;;;;;;31.55;23.30;;;7.30;99.90;;;;;;5100678;27;20193;-61
2022/02/09 04:46:21;;;;;;;29.05;22.55;;;7.20;99.90;;;;;;5062775;27;20297;-62
2022/02/09 04:49:08;;;;;;;40.20;24.30;;;7.20;99.90;;;;;;5064720;27;20674;-61
2022/02/09 04:51:57;;;;;;;30.17;25.50;;;7.10;99.90;;;;;;5053155;27;20564;-61
2022/02/09 04:54:38;;;;;;;30.88;23.45;;;7.20;99.90;;;;;;5074008;27;20290;-61
2022/02/09 04:57:15;;;;;;;30.73;25.35;;;7.10;99.90;;;;;;5049279;27;20198;-60
2022/02/09 04:59:54;;;;;;;28.35;23.75;;;7.10;99.90;;;;;;5066441;27;20220;-62
2022/02/09 05:02:47;;;;;;;29.55;24.90;;;7.00;99.90;;;;;;5082911;27;20226;-62
2022/02/09 05:17:43;;;;;;;34.53;24.70;;;7.10;99.90;;;;;;5053235;27;20212;-62
2022/02/09 05:22:46;;;;;;;35.60;28.10;;;6.90;99.90;;;;;;5074948;27;20247;-63
2022/02/09 05:28:06;;;;;;;34.08;26.58;;;6.90;99.90;;;;;;5089473;27;20198;-62
2022/02/09 05:30:46;;;;;;;37.90;25.67;;;6.90;99.90;;;;;;5057258;27;20254;-62
2022/02/09 05:33:18;;;;;;;34.25;24.52;;;6.80;99.90;;;;;;5062610;27;20197;-63
2022/02/09 05:35:50;;;;;;;31.25;26.20;;;6.80;99.90;;;;;;5061490;27;20708;-62
2022/02/09 05:38:23;;;;;;;32.38;26.45;;;6.80;99.90;;;;;;5071994;27;20206;-61
2022/02/09 05:40:54;;;;;;;31.77;25.90;;;6.80;99.90;;;;;;5106065;27;20197;-62
2022/02/09 05:43:27;;;;;;;33.13;26.50;;;6.80;99.90;;;;;;5061120;27;20201;-62
2022/02/09 05:46:51;;;;;;;33.00;26.75;;;6.80;99.90;;;;;;5063504;27;20316;-61
2022/02/09 05:49:45;;;;;;;34.38;25.80;;;6.80;99.90;;;;;;5049226;27;20216;-60
2022/02/09 05:52:22;;;;;;;32.92;26.15;;;6.80;99.90;;;;;;5056981;27;20285;-62
2022/02/09 05:55:17;;;;;;;33.15;26.10;;;6.80;99.90;;;;;;5067677;27;20198;-61
2022/02/09 05:57:53;;;;;;;29.85;24.92;;;6.90;99.90;;;;;;5057813;27;20269;-62
2022/02/09 06:00:28;;;;;;;34.40;26.33;;;6.90;99.90;;;;;;5071344;27;20265;-63
2022/02/09 06:03:01;;;;;;;35.08;27.25;;;7.10;99.90;;;;;;5055648;28;20725;-62
2022/02/09 06:05:32;;;;;;;34.80;26.85;;;7.20;99.90;;;;;;5070676;27;20293;-62
2022/02/09 06:08:04;;;;;;;38.92;27.50;;;7.10;99.90;;;;;;5058354;27;20232;-62
2022/02/09 06:10:36;;;;;;;32.40;27.70;;;7.20;99.90;;;;;;5053452;27;20203;-61
2022/02/09 06:13:16;;;;;;;38.92;28.15;;;7.30;99.90;;;;;;5060914;27;20194;-63
2022/02/09 06:21:35;;;;;;;40.42;27.02;;;7.10;99.90;;;;;;5106125;28;20256;-62
2022/02/09 06:24:07;;;;;;;39.13;27.45;;;6.90;99.90;;;;;;5105939;28;20241;-62
2022/02/09 06:26:37;;;;;;;37.38;27.08;;;6.90;99.90;;;;;;5100946;28;20755;-62
2022/02/09 06:29:08;;;;;;;38.95;27.40;;;6.80;99.90;;;;;;5103052;28;20210;-62
2022/02/09 06:31:43;;;;;;;32.05;26.10;;;6.80;99.90;;;;;;5107898;28;20203;-62
2022/02/09 06:34:16;;;;;;;37.38;28.27;;;6.70;99.90;;;;;;5116756;28;20237;-62
2022/02/09 06:36:55;;;;;;;35.97;28.05;;;6.60;99.90;;;;;;5121620;28;20290;-62
2022/02/09 06:39:27;;;;;;;38.88;29.83;;;6.60;99.90;;;;;;5105269;28;20200;-62
2022/02/09 06:41:59;;;;;;;32.00;27.85;;;6.60;99.90;;;;;;5104097;28;20197;-62
2022/02/09 06:44:32;;;;;;;34.00;26.52;;;6.50;99.90;;;;;;5120339;28;20704;-62
2022/02/09 06:47:05;;;;;;;32.55;26.35;;;6.50;99.90;;;;;;5108723;28;20228;-62
2022/02/09 06:49:37;;;;;;;37.67;27.55;;;6.40;99.90;;;;;;5115232;28;20200;-62
2022/02/09 06:52:11;;;;;;;37.15;29.33;;;6.40;99.90;;;;;;5114497;28;20587;-62
2022/02/09 06:54:55;;;;;;;38.67;27.40;;;6.40;99.90;;;;;;5077400;27;20224;-62
2022/02/09 06:57:31;;;;;;;31.65;27.33;;;6.30;99.90;;;;;;5076922;27;20233;-62
2022/02/09 07:00:04;;;;;;;36.63;27.17;;;6.30;99.90;;;;;;5072296;27;20560;-62
2022/02/09 07:02:40;;;;;;;30.42;25.00;;;6.30;99.90;;;;;;5069396;27;20217;-63
2022/02/09 07:05:12;;;;;;;36.38;27.50;;;6.20;99.90;;;;;;5068995;27;20229;-62
2022/02/09 07:07:43;;;;;;;35.30;27.52;;;6.20;99.90;;;;;;5066981;27;20220;-62
2022/02/09 07:10:15;;;;;;;33.63;27.80;;;6.20;99.90;;;;;;5072200;27;20195;-62
2022/02/09 07:12:46;;;;;;;32.92;27.50;;;6.20;99.90;;;;;;5066212;27;20316;-62
2022/02/09 07:15:26;;;;;;;34.03;27.42;;;6.20;99.90;;;;;;5062277;27;20193;-63
2022/02/09 07:18:06;;;;;;;36.75;27.77;;;6.20;99.90;;;;;;5048925;27;20187;-62
2022/02/09 07:20:46;;;;;;;35.75;26.75;;;6.10;99.90;;;;;;5058309;27;20209;-62
2022/02/09 07:23:22;;;;;;;31.73;26.42;;;6.00;99.90;;;;;;5129151;27;20687;-62
2022/02/09 07:26:04;;;;;;;37.72;27.98;;;5.90;99.90;;;;;;5066041;27;20199;-62
2022/02/09 07:28:35;;;;;;;36.20;27.95;;;5.90;99.90;;;;;;5094523;27;20244;-62
2022/02/09 07:31:08;;;;;;;30.27;25.20;;;5.90;99.90;;;;;;5057536;27;20237;-63
2022/02/09 07:33:42;;;;;;;35.25;26.35;;;5.90;99.90;;;;;;5107735;27;20194;-62
2022/02/09 07:36:13;;;;;;;34.03;26.80;;;5.90;99.90;;;;;;5085424;27;20194;-62
2022/02/09 07:38:46;;;;;;;34.65;25.17;;;5.80;99.90;;;;;;5071790;27;20212;-62
2022/02/09 07:41:18;;;;;;;36.60;26.88;;;5.80;99.90;;;;;;5053545;27;20210;-62
2022/02/09 07:44:02;;;;;;;33.17;25.10;;;5.70;99.90;;;;;;5112551;27;20198;-62
2022/02/09 07:46:55;;;;;;;31.27;25.13;;;5.70;99.90;;;;;;5083515;27;20237;-62
2022/02/09 07:49:39;;;;;;;35.63;25.55;;;5.70;99.90;;;;;;5053730;27;20220;-62
2022/02/09 07:52:19;;;;;;;35.78;24.63;;;5.70;99.90;;;;;;5062600;27;20194;-62
2022/02/09 07:54:51;;;;;;;33.85;27.10;;;5.70;99.90;;;;;;5050369;27;20192;-62
2022/02/09 07:57:21;;;;;;;32.95;25.77;;;5.60;99.90;;;;;;5093832;27;20202;-62
2022/02/09 07:59:53;;;;;;;34.95;25.05;;;5.60;99.90;;;;;;5069457;27;20213;-62
2022/02/09 08:02:24;;;;;;;33.95;26.92;;;5.60;99.90;;;;;;5105442;27;20197;-62
2022/02/09 08:04:56;;;;;;;34.78;25.15;;;5.60;99.90;;;;;;5061889;27;20281;-62
2022/02/09 08:07:28;;;;;;;30.33;23.95;;;5.60;99.90;;;;;;5111625;27;20244;-62
2022/02/09 08:09:59;;;;;;;30.67;24.85;;;5.60;99.90;;;;;;5061501;27;20202;-62
2022/02/09 08:12:51;;;;;;;35.38;26.75;;;5.60;99.90;;;;;;5088597;27;22124;-62
2022/02/09 08:24:07;;;;;;;34.15;24.48;;;5.60;99.90;;;;;;5054376;28;20227;-62
2022/02/09 08:27:18;;;;;;;36.33;25.60;;;5.70;99.90;;;;;;5052481;28;20203;-62
2022/02/09 08:30:01;;;;;;;32.38;24.45;;;5.60;99.90;;;;;;5042419;28;20216;-62
2022/02/09 08:32:42;;;;;;;32.42;25.02;;;5.70;99.90;;;;;;5060148;28;20206;-62
2022/02/09 08:35:13;;;;;;;33.40;24.88;;;5.70;99.90;;;;;;5053403;28;20202;-62
2022/02/09 08:37:47;;;;;;;32.67;25.13;;;5.70;99.90;;;;;;5063468;28;20201;-62
2022/02/09 08:40:21;;;;;;;34.85;26.75;;;5.70;99.90;;;;;;5053314;28;20186;-62
2022/02/09 08:42:53;;;;;;;35.15;25.90;;;5.60;99.90;;;;;;5050084;28;20265;-62
2022/02/09 08:45:24;;;;;;;30.95;24.67;;;5.60;99.90;;;;;;5061074;28;20293;-62
2022/02/09 08:47:56;;;;;;;30.25;23.70;;;5.50;99.90;;;;;;5077004;27;20222;-61
2022/02/09 08:50:27;;;;;;;33.97;24.83;;;5.50;99.90;;;;;;5073828;27;20213;-62
2022/02/09 08:52:59;;;;;;;30.83;23.33;;;5.60;99.90;;;;;;5060409;27;20191;-62
2022/02/09 08:55:30;;;;;;;26.38;21.90;;;5.70;99.90;;;;;;5063215;27;20194;-62
2022/02/09 08:58:02;;;;;;;36.17;22.95;;;5.80;99.90;;;;;;5106874;27;20199;-62
2022/02/09 09:00:36;;;;;;;29.08;24.23;;;5.80;99.90;;;;;;5059643;27;20209;-62
2022/02/09 09:03:17;;;;;;;35.42;24.30;;;6.00;99.90;;;;;;5094041;27;20198;-62
2022/02/09 09:05:50;;;;;;;32.15;23.70;;;6.00;99.90;;;;;;5061024;27;20572;-62
2022/02/09 09:08:42;;;;;;;31.42;22.63;;;6.10;99.90;;;;;;5066773;27;20648;-62
2022/02/09 09:11:40;;;;;;;29.45;22.83;;;6.10;99.90;;;;;;5095416;27;20233;-62
2022/02/09 10:31:34;;;;;;;29.40;22.13;;;6.20;99.90;;;;;;5090147;28;20229;-62
2022/02/09 10:34:13;;;;;;;28.13;21.30;;;6.30;99.90;;;;;;5057871;27;20302;-62
2022/02/09 10:36:49;;;;;;;30.15;21.70;;;6.10;99.90;;;;;;5054329;27;20210;-62
2022/02/09 10:39:29;;;;;;;30.80;22.00;;;6.00;99.90;;;;;;5112882;27;20200;-62
2022/02/09 10:42:10;;;;;;;29.67;22.42;;;6.00;99.90;;;;;;5082876;27;20190;-62
2022/02/09 10:44:46;;;;;;;25.80;21.80;;;6.00;99.90;;;;;;5121942;27;20234;-62
2022/02/09 10:47:24;;;;;;;28.52;22.23;;;6.00;99.90;;;;;;5072748;27;20716;-62
2022/02/09 10:50:18;;;;;;;29.63;22.00;;;6.00;99.90;;;;;;5062701;27;20566;-62
2022/02/09 10:52:50;;;;;;;28.25;22.50;;;6.00;99.90;;;;;;5048671;27;20222;-62
2022/02/09 10:55:34;;;;;;;30.98;21.45;;;6.10;99.90;;;;;;5068633;27;20301;-62
2022/02/09 10:58:06;;;;;;;30.75;22.40;;;6.10;99.90;;;;;;5070523;27;20197;-62
2022/02/09 11:00:43;;;;;;;28.20;21.55;;;6.20;99.90;;;;;;5133837;27;20258;-62
2022/02/09 11:03:17;;;;;;;29.40;22.13;;;6.10;99.90;;;;;;5064592;27;20225;-62
2022/02/09 11:05:51;;;;;;;27.23;21.15;;;6.10;99.90;;;;;;5091916;27;20581;-62
2022/02/09 11:08:22;;;;;;;28.45;22.58;;;6.10;99.90;;;;;;5063240;27;20688;-62
2022/02/09 11:10:54;;;;;;;31.83;20.23;;;6.10;99.90;;;;;;5067740;27;20230;-62
2022/02/09 11:13:25;;;;;;;28.15;21.10;;;6.10;99.90;;;;;;5077237;27;20206;-62
2022/02/09 11:15:56;;;;;;;28.77;21.17;;;6.00;99.90;;;;;;5059074;27;20266;-62
2022/02/09 11:18:27;;;;;;;27.98;21.20;;;5.80;99.90;;;;;;5065555;27;20619;-62
2022/02/09 11:21:13;;;;;;;29.42;21.65;;;5.80;99.90;;;;;;5063509;27;20202;-62
2022/02/09 11:23:45;;;;;;;28.95;19.98;;;5.80;99.90;;;;;;5072872;27;20205;-61
2022/02/09 11:26:45;;;;;;;29.42;21.58;;;5.70;99.90;;;;;;5068652;27;20289;-62
2022/02/09 11:29:22;;;;;;;30.60;22.10;;;5.60;99.90;;;;;;5065723;27;21888;-62
2022/02/09 11:32:27;;;;;;;28.83;21.27;;;5.70;99.90;;;;;;5094195;27;20206;-62
2022/02/09 11:35:24;;;;;;;30.20;22.30;;;5.60;99.90;;;;;;5063950;27;20198;-62
2022/02/09 11:40:51;;;;;;;28.55;20.27;;;5.70;99.90;;;;;;5100579;27;20213;-62
2022/02/09 11:43:50;;;;;;;27.77;20.95;;;5.70;99.90;;;;;;5053051;27;20202;-62
2022/02/09 12:10:26;;;;;;;30.55;24.27;;;6.10;99.90;;;;;;5045458;28;20226;-61
2022/02/09 12:13:05;;;;;;;33.80;24.02;;;6.30;99.90;;;;;;5044787;28;20530;-61
2022/02/09 12:19:02;;;;;;;32.03;22.25;;;6.40;99.90;;;;;;5026221;28;20224;-61
2022/02/09 12:21:50;;;;;;;26.95;21.20;;;6.20;99.90;;;;;;5014229;28;20207;-61
2022/02/09 12:24:32;;;;;;;33.78;23.13;;;6.20;99.90;;;;;;5000533;28;20622;-62
2022/02/09 12:27:06;;;;;;;33.83;21.80;;;6.10;99.90;;;;;;5000620;28;20223;-62
2022/02/09 12:29:40;;;;;;;27.13;21.77;;;6.00;99.90;;;;;;5031384;28;20227;-62
2022/02/09 12:32:25;;;;;;;26.05;21.60;;;5.90;99.90;;;;;;5047606;27;20193;-61
2022/02/09 12:34:57;;;;;;;30.90;23.52;;;5.80;99.90;;;;;;5091014;27;20213;-61
2022/02/09 12:37:29;;;;;;;31.90;23.40;;;5.70;99.90;;;;;;5058118;27;20208;-62
2022/02/09 12:40:03;;;;;;;29.42;21.85;;;5.70;99.90;;;;;;5059469;27;20262;-62
2022/02/09 12:42:36;;;;;;;30.45;23.65;;;5.60;99.90;;;;;;5055576;27;20213;-61
2022/02/09 12:45:10;;;;;;;29.13;22.00;;;5.50;99.90;;;;;;5093487;27;20261;-61
2022/02/09 12:47:43;;;;;;;28.60;21.50;;;5.50;99.90;;;;;;5145855;27;20197;-62
2022/02/09 12:50:15;;;;;;;30.20;22.83;;;5.40;99.90;;;;;;5074898;27;20214;-61
2022/02/09 12:52:47;;;;;;;29.13;22.48;;;5.30;99.90;;;;;;5073478;27;20245;-61
2022/02/09 12:55:19;;;;;;;27.30;22.38;;;5.30;99.90;;;;;;5058747;27;20198;-61
2022/02/09 12:57:53;;;;;;;27.88;21.85;;;5.30;99.90;;;;;;5063748;27;20309;-62
2022/02/09 13:00:28;;;;;;;30.70;22.73;;;5.30;99.90;;;;;;5057416;27;20217;-61
2022/02/09 13:03:00;;;;;;;27.27;21.55;;;5.20;99.90;;;;;;5058874;27;20197;-62
2022/02/09 13:05:32;;;;;;;26.70;21.35;;;5.20;99.90;;;;;;5058306;27;20217;-61
2022/02/09 13:08:04;;;;;;;33.38;24.30;;;5.20;99.90;;;;;;5065461;27;20198;-61
2022/02/09 13:10:38;;;;;;;30.48;23.00;;;5.10;99.90;;;;;;5079066;27;20226;-61
2022/02/09 13:13:14;;;;;;;31.50;22.35;;;5.10;99.90;;;;;;5089684;27;20473;-61
2022/02/09 13:15:50;;;;;;;33.03;21.45;;;5.10;99.90;;;;;;5076509;27;20216;-61
2022/02/09 13:18:36;;;;;;;34.03;24.80;;;5.10;99.90;;;;;;5047314;27;20205;-62
2022/02/09 14:07:13;;;;;;;45.83;27.10;;;4.60;99.90;;;;;;5000884;28;20233;-63
2022/02/09 14:12:48;;;;;;;44.35;27.95;;;4.50;99.90;;;;;;5008795;28;20286;-62
2022/02/09 14:15:48;;;;;;;45.63;29.08;;;4.50;99.90;;;;;;5012822;28;20290;-62
2022/02/09 14:18:32;;;;;;;46.15;26.80;;;4.50;99.90;;;;;;5009345;28;20616;-62
2022/02/09 14:52:18;;;;;;;33.90;25.13;;;4.90;99.90;;;;;;5073766;28;20231;-62
2022/02/09 14:54:54;;;;;;;28.95;22.45;;;5.00;99.90;;;;;;5078201;28;20201;-61
2022/02/09 14:57:31;;;;;;;33.47;24.58;;;5.10;99.90;;;;;;5080007;28;20209;-63
2022/02/09 15:00:12;;;;;;;33.03;24.40;;;5.10;99.90;;;;;;5080500;28;20227;-62
2022/02/09 15:02:58;;;;;;;31.08;23.73;;;5.20;99.90;;;;;;5082999;28;20211;-62
2022/02/09 15:08:30;;;;;;;31.85;24.40;;;5.30;99.90;;;;;;5076656;28;20209;-62
2022/02/09 15:11:10;;;;;;;37.75;26.73;;;5.40;99.90;;;;;;5082510;28;20360;-62
2022/02/09 15:13:56;;;;;;;35.78;26.33;;;5.50;99.90;;;;;;5059810;28;20193;-63
2022/02/09 15:16:31;;;;;;;31.80;26.17;;;5.50;99.90;;;;;;5062042;28;20333;-62
2022/02/09 15:19:07;;;;;;;37.03;25.90;;;5.50;99.90;;;;;;5062669;27;20193;-62
2022/02/09 15:24:28;;;;;;;38.05;28.23;;;5.70;99.90;;;;;;5056388;27;20269;-61
2022/02/09 15:27:01;;;;;;;37.50;28.92;;;5.70;99.90;;;;;;5061407;28;20201;-62
2022/02/09 15:29:37;;;;;;;36.00;27.10;;;5.70;99.90;;;;;;5068406;28;20206;-62
2022/02/09 15:32:18;;;;;;;32.40;26.83;;;5.50;99.90;;;;;;5060099;28;20232;-62
2022/02/09 15:34:53;;;;;;;32.50;28.67;;;5.50;99.90;;;;;;5062274;28;20215;-62
2022/02/09 15:37:32;;;;;;;38.40;29.10;;;5.60;99.90;;;;;;5060245;28;20189;-62
2022/02/09 15:40:09;;;;;;;34.65;29.17;;;5.80;99.90;;;;;;5069306;27;20574;-62
2022/02/09 15:56:46;;;;;;;33.00;25.02;;;6.00;99.90;;;;;;5060504;28;20217;-62
2022/02/09 15:59:37;;;;;;;36.33;27.67;;;6.20;99.90;;;;;;5061816;28;20197;-62
2022/02/09 16:10:50;;;;;;;29.48;24.00;;;6.90;99.90;;;;;;5049106;28;20289;-61
2022/02/09 16:16:45;;;;;;;33.20;25.98;;;6.90;99.90;;;;;;5037521;28;20213;-60
2022/02/09 16:22:11;;;;;;;25.95;20.73;;;7.20;99.90;;;;;;5034483;27;20199;-61
2022/02/09 16:25:13;;;;;;;28.30;22.63;;;7.30;99.90;;;;;;5034712;28;20202;-62
2022/02/09 16:33:33;;;;;;;94.13;39.28;;;8.10;99.90;;;;;;5036838;28;20195;-61
2022/02/09 16:44:17;;;;;;;24.35;19.80;;;8.40;99.90;;;;;;5077120;28;20194;-67
2022/02/09 16:44:45;;;;;;;26.13;20.65;;;8.70;99.90;;;;;;5076643;28;20635;-65
2022/02/09 16:47:34;;;;;;;22.80;18.17;;;8.90;99.90;;;;;;5108746;28;20743;-65
2022/02/09 16:50:09;;;;;;;23.48;18.05;;;9.10;99.90;;;;;;5115146;27;20199;-64
2022/02/09 16:52:48;;;;;;;23.00;18.63;;;9.10;99.90;;;;;;5120970;27;20226;-72
2022/02/09 16:55:49;;;;;;;22.63;17.80;;;9.70;99.90;;;;;;5122017;28;20553;-62
2022/02/09 17:21:00;;;;;;;17.60;15.43;;;11.00;99.90;;;;;;5103591;28;20453;-64
2022/02/09 17:23:31;;;;;;;18.83;14.03;;;11.10;99.90;;;;;;5116573;28;20457;-61
2022/02/09 17:26:03;;;;;;;22.03;15.93;;;10.90;99.90;;;;;;5112325;28;20448;-63
2022/02/09 17:28:34;;;;;;;16.80;14.50;;;10.60;99.90;;;;;;5104655;28;20541;-63
2022/02/09 17:31:18;;;;;;;19.30;16.03;;;10.40;99.90;;;;;;5104332;28;20598;-63
2022/02/09 17:34:04;;;;;;;23.63;16.40;;;10.30;99.90;;;;;;5110880;28;20445;-61
2022/02/09 17:36:46;;;;;;;21.17;17.27;;;10.30;99.90;;;;;;5102395;28;20458;-61
2022/02/09 17:53:22;;;;;;;17.30;15.40;;;10.30;99.90;;;;;;5117221;28;20464;-65
2022/02/09 17:53:31;;;;;;;15.23;13.70;;;13.30;99.90;;;;;;5058707;28;20448;-63
2022/02/09 17:56:06;;;;;;;20.10;15.17;;;13.10;99.90;;;;;;5059778;28;20448;-62
2022/02/09 17:58:45;;;;;;;16.60;15.00;;;13.10;99.90;;;;;;5059423;28;20455;-62
2022/02/09 18:01:18;;;;;;;17.70;16.00;;;12.50;99.90;;;;;;5078852;28;20444;-63
2022/02/09 18:03:54;;;;;;;18.23;14.97;;;12.50;99.90;;;;;;5073181;28;20471;-62
2022/02/09 18:06:29;;;;;;;17.27;15.50;;;12.60;99.90;;;;;;5059305;28;20597;-61
2022/02/09 18:09:06;;;;;;;18.97;15.87;;;12.30;99.90;;;;;;5058849;27;20467;-63
2022/02/09 18:11:48;;;;;;;24.93;17.47;;;12.10;99.90;;;;;;5058920;28;20475;-62
2022/02/09 18:26:38;;;;;;;16.90;13.20;;;11.40;99.90;;;;;;5059049;28;20939;-62
2022/02/09 18:29:10;;;;;;;16.43;13.70;;;11.40;99.90;;;;;;5061854;28;20515;-62
2022/02/09 18:31:56;;;;;;;15.80;12.53;;;11.20;99.90;;;;;;5061144;28;20491;-62
2022/02/09 18:37:42;;;;;;;14.00;12.40;;;11.10;99.90;;;;;;5062951;28;20947;-62
2022/02/09 18:43:21;;;;;;;16.07;14.13;;;10.60;99.90;;;;;;5004043;28;20519;-64
2022/02/09 18:45:58;;;;;;;18.70;14.50;;;10.60;99.90;;;;;;5002120;28;20475;-63
2022/02/09 18:49:02;;;;;;;20.90;15.00;;;10.60;99.90;;;;;;5002951;28;20447;-64
2022/02/09 18:57:45;;;;;;;22.30;16.40;;;10.80;99.90;;;;;;4992004;28;20451;-62
2022/02/09 19:00:38;;;;;;;19.83;16.30;;;10.80;99.90;;;;;;5005676;28;20454;-62
2022/02/09 19:03:24;;;;;;;21.30;16.60;;;10.90;99.90;;;;;;4999869;28;20451;-63
2022/02/09 19:06:02;;;;;;;22.00;17.40;;;10.70;99.90;;;;;;5005534;28;20469;-63
2022/02/09 19:08:52;;;;;;;17.97;15.80;;;10.70;99.90;;;;;;5014687;28;20446;-64
2022/02/09 19:14:19;;;;;;;16.87;15.07;;;10.70;99.90;;;;;;5062260;28;20437;-64
2022/02/09 19:16:58;;;;;;;15.10;13.57;;;10.80;99.90;;;;;;5061062;27;20577;-60
2022/02/09 19:19:38;;;;;;;20.17;14.93;;;11.00;99.90;;;;;;5061802;28;20462;-63
2022/02/09 19:40:30;;;;;;;16.33;14.60;;;11.20;99.90;;;;;;5062683;27;20487;-62
2022/02/09 19:42:53;;;;;;;19.93;15.63;;;11.80;99.90;;;;;;5049903;27;20457;-62
2022/02/09 19:48:02;;;;;;;17.23;15.00;;;12.20;99.90;;;;;;5051297;28;20521;-64
2022/02/09 19:50:50;;;;;;;18.53;16.10;;;12.30;99.90;;;;;;5059336;28;20543;-64
2022/02/09 19:53:36;;;;;;;18.67;15.90;;;12.40;99.90;;;;;;5059449;28;20541;-61
2022/02/09 19:56:12;;;;;;;17.60;15.53;;;12.50;99.90;;;;;;5062322;28;20454;-61
2022/02/09 19:58:50;;;;;;;16.87;15.10;;;12.50;99.90;;;;;;5058269;28;20464;-61
2022/02/09 20:01:24;;;;;;;22.43;16.80;;;12.50;99.90;;;;;;5058648;28;20551;-63
2022/02/09 20:03:55;;;;;;;20.63;16.20;;;12.30;99.90;;;;;;5061675;28;20461;-62
2022/02/09 20:06:26;;;;;;;16.67;15.10;;;12.30;99.90;;;;;;5060518;28;20886;-63
2022/02/09 20:08:57;;;;;;;23.03;15.10;;;12.40;99.90;;;;;;5059519;28;20437;-62
2022/02/09 20:11:31;;;;;;;17.40;14.90;;;12.40;99.90;;;;;;5060199;28;20462;-64
2022/02/09 20:14:02;;;;;;;17.97;15.97;;;12.40;99.90;;;;;;5061488;28;20491;-64
2022/02/09 20:16:33;;;;;;;18.87;16.10;;;12.50;99.90;;;;;;5073741;27;20460;-64
2022/02/09 20:19:04;;;;;;;17.80;15.97;;;12.50;99.90;;;;;;5061297;28;20561;-62
2022/02/09 20:21:34;;;;;;;19.40;16.40;;;12.40;99.90;;;;;;5055314;28;20460;-63
2022/02/09 20:24:10;;;;;;;18.80;15.77;;;12.60;99.90;;;;;;5061818;27;20448;-63
2022/02/09 20:26:43;;;;;;;16.03;14.10;;;12.70;99.90;;;;;;5053484;28;20455;-65
2022/02/09 20:29:19;;;;;;;17.67;15.80;;;12.80;99.90;;;;;;5044261;28;20459;-64
2022/02/09 20:32:07;;;;;;;15.20;13.70;;;12.90;99.90;;;;;;5040871;28;20550;-65
2022/02/09 20:34:47;;;;;;;17.47;13.37;;;12.80;99.90;;;;;;5061230;28;20462;-65
2022/02/09 20:37:19;;;;;;;14.03;12.60;;;12.80;99.90;;;;;;5041183;28;20446;-63
2022/02/09 20:40:06;;;;;;;14.83;13.30;;;12.70;99.90;;;;;;5041052;28;20426;-66
2022/02/09 20:42:45;;;;;;;16.03;13.50;;;12.90;99.90;;;;;;5109181;27;20450;-63
2022/02/09 20:45:22;;;;;;;14.30;12.43;;;13.20;99.90;;;;;;5058249;28;20488;-64
2022/02/09 20:47:58;;;;;;;13.10;11.80;;;13.30;99.90;;;;;;5058975;27;20463;-64
2022/02/09 20:50:31;;;;;;;15.63;12.47;;;13.60;99.90;;;;;;5051014;27;20456;-66
2022/02/09 20:53:02;;;;;;;12.33;11.03;;;13.90;99.90;;;;;;5058689;28;20495;-65
2022/02/09 20:55:33;;;;;;;13.00;11.70;;;14.00;99.90;;;;;;5074748;27;20951;-65
2022/02/09 20:58:06;;;;;;;12.13;10.83;;;14.10;99.90;;;;;;5078098;27;20452;-66
2022/02/09 21:00:43;;;;;;;12.93;11.03;;;14.10;99.90;;;;;;5154060;27;20453;-66
2022/02/09 21:03:27;;;;;;;18.83;12.03;;;14.30;99.90;;;;;;5084833;27;20448;-66
2022/02/09 21:06:10;;;;;;;12.30;11.00;;;14.50;99.90;;;;;;5106647;27;20539;-71
2022/02/09 21:08:53;;;;;;;12.43;11.27;;;14.70;99.90;;;;;;5068373;27;20658;-72
2022/02/09 21:11:36;;;;;;;12.60;11.33;;;14.90;99.90;;;;;;5061521;27;20457;-71
2022/02/09 21:14:17;;;;;;;13.03;11.13;;;14.90;99.90;;;;;;5060102;27;20484;-70
2022/02/09 21:17:06;;;;;;;13.50;10.40;;;14.90;99.90;;;;;;5092976;27;20453;-69
2022/02/09 21:20:04;;;;;;;12.27;11.07;;;14.70;99.90;;;;;;5063581;27;20451;-71
2022/02/09 21:26:08;;;;;;;11.17;10.07;;;14.70;99.90;;;;;;5047859;27;20446;-69
2022/02/09 21:45:49;;;;;;;11.40;9.13;;;14.60;99.90;;;;;;5025513;27;20495;-62
2022/02/09 21:54:06;;;;;;;11.00;9.90;;;14.60;99.90;;;;;;5038472;27;20587;-62
2022/02/09 21:56:44;;;;;;;14.23;10.80;;;14.50;99.90;;;;;;5088668;27;20515;-62
2022/02/09 21:59:41;;;;;;;15.40;11.57;;;14.40;99.90;;;;;;5049570;27;20491;-65
2022/02/09 22:16:29;;;;;;;13.73;10.03;;;14.10;99.90;;;;;;5099279;27;20452;-62
2022/02/09 22:19:30;;;;;;;11.63;9.40;;;14.10;99.90;;;;;;5097666;27;20448;-64
2022/02/09 22:22:16;;;;;;;12.03;9.23;;;14.10;99.90;;;;;;5107872;27;20516;-64
2022/02/09 22:27:39;;;;;;;8.13;7.00;;;13.90;99.90;;;;;;5096335;27;20476;-64